Time;durP1;ratioP1;P1;durP2;ratioP2;P2;SDS_P1;SDS_P2;PMS_P1;PMS_P2;Temp;Humidity;BMP_temperature;BMP_pressure;BME280_temperature;BME280_humidity;BME280_pressure;Samples;Min_cycle;Max_cycle;Signal;HPM_P1;HPM_P2
2023/08/15 00:01:36;;;;;;;12.18;7.28;;;;;;;;;;5020908;28;20049;-64
2023/08/15 00:04:02;;;;;;;14.23;7.57;;;18.50;99.90;;;;;;4991368;28;20875;-64
2023/08/15 00:06:28;;;;;;;12.02;7.80;;;18.50;99.90;;;;;;5003167;28;20053;-63
2023/08/15 00:08:54;;;;;;;13.48;7.55;;;18.50;99.90;;;;;;5019175;28;20041;-65
2023/08/15 00:11:23;;;;;;;11.50;7.00;;;18.70;99.90;;;;;;5010839;28;20041;-64
2023/08/15 00:13:49;;;;;;;16.65;8.23;;;18.60;99.90;;;;;;5003161;28;20459;-64
2023/08/15 00:16:15;;;;;;;14.30;6.93;;;;;;;;;;5016899;28;20084;-64
2023/08/15 00:18:41;;;;;;;17.02;8.00;;;18.60;99.90;;;;;;5002000;28;20053;-64
2023/08/15 00:21:07;;;;;;;13.82;7.78;;;;;;;;;;4997464;28;20058;-64
2023/08/15 00:23:33;;;;;;;16.13;7.90;;;;;;;;;;5011276;28;20119;-64
2023/08/15 00:26:00;;;;;;;15.60;7.68;;;;;;;;;;5020024;28;20045;-64
2023/08/15 00:28:26;;;;;;;9.70;7.10;;;;;;;;;;5019335;28;20139;-64
2023/08/15 00:30:52;;;;;;;13.32;8.63;;;18.70;99.90;;;;;;5020099;28;20139;-64
2023/08/15 00:33:17;;;;;;;16.17;7.50;;;18.50;99.90;;;;;;5017634;28;20040;-64
2023/08/15 00:35:44;;;;;;;13.82;7.85;;;;;;;;;;5009855;28;20119;-64
2023/08/15 00:38:09;;;;;;;13.45;8.27;;;18.60;99.90;;;;;;5014326;28;20045;-65
2023/08/15 00:40:39;;;;;;;12.20;7.07;;;18.50;99.90;;;;;;4987226;28;20123;-64
2023/08/15 00:43:05;;;;;;;13.43;6.72;;;18.70;99.90;;;;;;4985138;28;20042;-64
2023/08/15 00:45:31;;;;;;;10.15;7.45;;;18.60;99.90;;;;;;4989639;28;20056;-64
2023/08/15 00:47:58;;;;;;;10.73;6.65;;;;;;;;;;4984962;28;20149;-64
2023/08/15 00:50:24;;;;;;;14.63;7.75;;;18.70;99.90;;;;;;5013240;28;20127;-63
2023/08/15 00:52:50;;;;;;;12.48;6.30;;;18.60;99.90;;;;;;5012172;28;21681;-64
2023/08/15 00:55:17;;;;;;;11.52;7.03;;;18.80;99.90;;;;;;4997826;28;20148;-64
2023/08/15 00:57:43;;;;;;;13.80;6.93;;;;;;;;;;5016664;28;20133;-64
2023/08/15 01:00:11;;;;;;;10.43;6.88;;;18.70;99.90;;;;;;5017856;28;20061;-64
2023/08/15 01:02:37;;;;;;;10.35;6.80;;;;;;;;;;5009571;28;20088;-64
2023/08/15 01:05:04;;;;;;;14.70;7.70;;;;;;;;;;4982909;28;20053;-64
2023/08/15 01:07:30;;;;;;;12.45;7.03;;;18.70;99.90;;;;;;4986601;28;20133;-64
2023/08/15 01:09:56;;;;;;;14.15;6.43;;;;;;;;;;5018937;28;20045;-64
2023/08/15 01:12:28;;;;;;;14.23;7.32;;;18.70;99.90;;;;;;5022329;28;20064;-64
2023/08/15 01:15:00;;;;;;;10.82;7.07;;;18.80;99.90;;;;;;5018351;28;20048;-64
2023/08/15 01:17:35;;;;;;;12.00;7.20;;;18.70;99.90;;;;;;5020608;28;20043;-64
2023/08/15 01:20:11;;;;;;;14.27;7.53;;;18.80;99.90;;;;;;5021796;28;20073;-63
2023/08/15 01:22:43;;;;;;;17.77;7.10;;;18.60;99.90;;;;;;5022829;28;20045;-64
2023/08/15 01:25:09;;;;;;;12.02;6.60;;;;;;;;;;5014142;28;20095;-64
2023/08/15 01:27:35;;;;;;;13.98;6.13;;;;;;;;;;4999795;28;20057;-64
2023/08/15 01:30:01;;;;;;;14.38;7.38;;;18.70;99.90;;;;;;5020287;28;20025;-64
2023/08/15 01:32:45;;;;;;;13.23;6.82;;;18.80;99.90;;;;;;5012415;28;20046;-64
2023/08/15 01:35:16;;;;;;;9.87;6.47;;;18.60;99.90;;;;;;4994455;28;20034;-64
2023/08/15 01:37:44;;;;;;;15.55;6.75;;;18.50;99.90;;;;;;5022083;28;20283;-64
2023/08/15 01:40:14;;;;;;;15.90;6.88;;;18.50;99.90;;;;;;5009716;28;20045;-63
2023/08/15 01:42:40;;;;;;;12.38;7.03;;;18.60;99.90;;;;;;5012523;28;20464;-64
2023/08/15 01:45:08;;;;;;;15.65;7.75;;;18.70;99.90;;;;;;5011599;28;20041;-64
2023/08/15 01:47:34;;;;;;;16.30;8.57;;;18.60;99.90;;;;;;5020314;28;20153;-64
2023/08/15 01:50:00;;;;;;;12.30;6.85;;;;;;;;;;5008329;28;20078;-64
2023/08/15 01:52:26;;;;;;;11.60;8.23;;;18.50;99.90;;;;;;5017713;28;20065;-64
2023/08/15 01:54:51;;;;;;;14.40;8.80;;;18.50;99.90;;;;;;5016488;28;20121;-64
2023/08/15 01:57:17;;;;;;;12.93;8.95;;;18.70;99.90;;;;;;5023724;28;20484;-64
2023/08/15 01:59:45;;;;;;;14.13;7.78;;;18.70;99.90;;;;;;5022413;28;20053;-64
2023/08/15 02:02:11;;;;;;;17.88;9.55;;;18.70;99.90;;;;;;5024008;28;20041;-64
2023/08/15 02:04:37;;;;;;;16.55;10.30;;;18.70;99.90;;;;;;5017595;28;20052;-64
2023/08/15 02:07:03;;;;;;;15.40;9.52;;;;;;;;;;5017224;28;20053;-64
2023/08/15 02:09:28;;;;;;;15.40;9.68;;;18.70;99.90;;;;;;5016574;28;20042;-64
2023/08/15 02:11:54;;;;;;;20.73;10.60;;;;;;;;;;5023968;28;20096;-64
2023/08/15 02:14:20;;;;;;;16.83;10.75;;;18.50;99.90;;;;;;5023389;28;20104;-64
2023/08/15 02:16:46;;;;;;;18.15;9.70;;;;;;;;;;5019127;28;20041;-63
2023/08/15 02:19:12;;;;;;;18.20;10.85;;;18.70;99.90;;;;;;5018765;28;20048;-64
2023/08/15 02:21:37;;;;;;;16.55;9.57;;;18.70;99.90;;;;;;5012056;28;20115;-64
2023/08/15 02:24:03;;;;;;;16.48;11.68;;;18.60;99.90;;;;;;5021752;28;20041;-64
2023/08/15 02:26:29;;;;;;;19.80;11.88;;;18.40;99.90;;;;;;5015877;28;20073;-63
2023/08/15 02:28:55;;;;;;;13.63;10.90;;;;;;;;;;5015467;28;20033;-64
2023/08/15 02:31:21;;;;;;;16.48;10.60;;;18.40;99.90;;;;;;5004227;28;20049;-64
2023/08/15 02:33:47;;;;;;;14.85;10.73;;;18.50;99.90;;;;;;4993418;28;20129;-63
2023/08/15 02:36:12;;;;;;;14.65;9.57;;;18.30;99.90;;;;;;5018154;28;20505;-64
2023/08/15 02:38:38;;;;;;;16.90;10.90;;;18.30;99.90;;;;;;4999958;28;20464;-63
2023/08/15 02:41:04;;;;;;;12.43;9.38;;;;;;;;;;5017513;28;20046;-64
2023/08/15 02:43:30;;;;;;;16.00;10.52;;;;;;;;;;5011940;28;20062;-64
2023/08/15 02:45:55;;;;;;;15.73;10.50;;;18.20;99.90;;;;;;4989697;28;20996;-64
2023/08/15 02:48:21;;;;;;;15.13;11.15;;;18.10;99.90;;;;;;4995175;28;20046;-64
2023/08/15 02:50:47;;;;;;;12.35;8.35;;;;;;;;;;4987305;28;20128;-64
2023/08/15 02:53:12;;;;;;;15.57;10.93;;;18.00;99.90;;;;;;4985474;28;20041;-64
2023/08/15 02:55:38;;;;;;;16.27;10.90;;;;;;;;;;5008039;28;20444;-63
2023/08/15 02:58:04;;;;;;;14.40;8.50;;;17.90;99.90;;;;;;5013555;28;20099;-63
2023/08/15 03:00:30;;;;;;;15.02;10.35;;;;;;;;;;5013774;28;20041;-64
2023/08/15 03:02:56;;;;;;;16.23;9.30;;;17.90;99.90;;;;;;5018234;28;20053;-64
2023/08/15 03:05:21;;;;;;;15.93;9.15;;;17.90;99.90;;;;;;5023510;28;20567;-64
2023/08/15 03:07:47;;;;;;;15.65;8.85;;;;;;;;;;5021287;28;20415;-64
2023/08/15 03:10:13;;;;;;;17.13;9.40;;;17.90;99.90;;;;;;5015490;28;20117;-64
2023/08/15 03:12:38;;;;;;;12.60;9.02;;;17.90;99.90;;;;;;5010232;28;20045;-64
2023/08/15 03:15:04;;;;;;;12.98;8.65;;;17.90;99.90;;;;;;4985094;28;20042;-64
2023/08/15 03:17:32;;;;;;;12.75;8.50;;;18.00;99.90;;;;;;5013562;28;20069;-64
2023/08/15 03:19:58;;;;;;;11.80;8.05;;;18.00;99.90;;;;;;5015966;28;20050;-64
2023/08/15 03:22:23;;;;;;;12.05;8.20;;;17.90;99.90;;;;;;4988095;28;20072;-63
2023/08/15 03:24:49;;;;;;;14.00;9.10;;;18.00;99.90;;;;;;4988858;28;20101;-64
2023/08/15 03:27:15;;;;;;;13.35;8.85;;;;;;;;;;5018482;28;20041;-64
2023/08/15 03:29:41;;;;;;;16.45;7.93;;;;;;;;;;5010918;28;20096;-64
2023/08/15 03:32:06;;;;;;;14.20;8.23;;;18.20;99.90;;;;;;4987449;28;20077;-64
2023/08/15 03:34:32;;;;;;;14.43;7.88;;;18.00;99.90;;;;;;5011658;28;20477;-64
2023/08/15 03:36:58;;;;;;;16.13;7.97;;;17.90;99.90;;;;;;5012774;28;20045;-64
2023/08/15 03:39:23;;;;;;;16.05;8.55;;;17.90;99.90;;;;;;5011926;28;20475;-63
2023/08/15 03:41:49;;;;;;;14.25;8.18;;;18.10;99.90;;;;;;5019502;28;20494;-64
2023/08/15 03:44:14;;;;;;;11.75;7.35;;;18.30;99.90;;;;;;5015418;28;20070;-63
2023/08/15 03:46:44;;;;;;;12.70;8.13;;;18.20;99.90;;;;;;5007292;28;20045;-64
2023/08/15 03:49:10;;;;;;;12.70;8.38;;;;;;;;;;5013379;28;20056;-64
2023/08/15 03:51:36;;;;;;;13.98;9.50;;;18.00;99.90;;;;;;5016645;28;20049;-64
2023/08/15 03:54:01;;;;;;;17.10;8.20;;;18.00;99.90;;;;;;5014456;28;20045;-64
2023/08/15 03:56:27;;;;;;;14.38;9.10;;;18.10;99.90;;;;;;5018914;28;20056;-64
2023/08/15 03:58:52;;;;;;;15.88;9.15;;;18.10;99.90;;;;;;5001679;28;20111;-64
2023/08/15 04:01:18;;;;;;;15.23;9.25;;;18.00;99.90;;;;;;5018652;28;20499;-64
2023/08/15 04:03:44;;;;;;;13.70;9.15;;;18.10;99.90;;;;;;5013764;28;20758;-64
2023/08/15 04:06:09;;;;;;;14.60;9.02;;;18.10;99.90;;;;;;5003678;28;20048;-64
2023/08/15 04:08:35;;;;;;;15.60;9.07;;;18.10;99.90;;;;;;5011668;28;20045;-64
2023/08/15 04:11:01;;;;;;;13.32;8.75;;;18.00;99.90;;;;;;5013307;28;20048;-64
2023/08/15 04:13:27;;;;;;;11.27;7.30;;;;;;;;;;5015064;28;20041;-64
2023/08/15 04:15:53;;;;;;;12.98;8.07;;;;;;;;;;5011649;28;20116;-64
2023/08/15 04:18:18;;;;;;;11.65;9.20;;;17.90;99.90;;;;;;5013474;28;20041;-64
2023/08/15 04:20:44;;;;;;;14.40;8.82;;;17.80;99.90;;;;;;5013627;28;20037;-64
2023/08/15 04:23:10;;;;;;;13.27;9.43;;;17.90;99.90;;;;;;5021861;28;20060;-65
2023/08/15 04:25:37;;;;;;;16.77;9.07;;;17.90;99.90;;;;;;5007120;28;20042;-64
2023/08/15 04:28:03;;;;;;;12.80;7.63;;;17.80;99.90;;;;;;5015326;28;20042;-64
2023/08/15 04:30:29;;;;;;;12.43;8.23;;;17.70;99.90;;;;;;5003325;28;20044;-64
2023/08/15 04:32:55;;;;;;;13.43;7.97;;;17.70;99.90;;;;;;5016695;28;20512;-64
2023/08/15 04:35:22;;;;;;;13.50;7.57;;;17.80;99.90;;;;;;5016934;28;20046;-63
2023/08/15 04:37:48;;;;;;;11.85;7.90;;;;;;;;;;5012584;28;20492;-63
2023/08/15 04:40:13;;;;;;;10.68;8.38;;;17.80;99.90;;;;;;4989744;28;20119;-64
2023/08/15 04:42:40;;;;;;;13.98;8.02;;;17.80;99.90;;;;;;5019164;28;20128;-64
2023/08/15 04:45:07;;;;;;;14.18;7.97;;;17.80;99.90;;;;;;5019255;28;20054;-64
2023/08/15 04:47:33;;;;;;;30.05;8.63;;;17.80;99.90;;;;;;5025952;28;20076;-64
2023/08/15 04:49:59;;;;;;;9.38;6.68;;;17.80;99.90;;;;;;5008986;28;20049;-64
2023/08/15 04:52:25;;;;;;;15.82;7.70;;;;;;;;;;5021927;28;20038;-64
2023/08/15 04:54:51;;;;;;;10.48;7.38;;;18.00;99.90;;;;;;5012052;28;20129;-64
2023/08/15 04:57:17;;;;;;;9.70;6.65;;;17.80;99.90;;;;;;4989839;28;20128;-64
2023/08/15 04:59:43;;;;;;;13.32;6.80;;;;;;;;;;5006874;28;20492;-64
2023/08/15 05:02:08;;;;;;;9.60;6.05;;;17.80;99.90;;;;;;5011170;28;20041;-64
2023/08/15 05:04:34;;;;;;;11.18;6.97;;;;;;;;;;5016442;28;20045;-64
2023/08/15 05:07:00;;;;;;;13.88;6.70;;;;;;;;;;5027054;28;20046;-64
2023/08/15 05:09:28;;;;;;;11.13;6.53;;;17.70;99.90;;;;;;5010571;28;20075;-63
2023/08/15 05:11:54;;;;;;;10.77;6.15;;;;;;;;;;5009536;28;20778;-64
2023/08/15 05:14:20;;;;;;;8.88;5.68;;;17.90;99.90;;;;;;5023081;28;20038;-64
2023/08/15 05:16:46;;;;;;;9.32;6.03;;;;;;;;;;5028416;28;20041;-63
2023/08/15 05:19:12;;;;;;;9.48;5.60;;;17.60;99.90;;;;;;5027222;28;20056;-64
2023/08/15 05:21:38;;;;;;;9.75;5.85;;;;;;;;;;5025014;28;20556;-64
2023/08/15 05:24:03;;;;;;;14.25;6.25;;;17.60;99.90;;;;;;5024209;28;20377;-63
2023/08/15 05:26:29;;;;;;;13.88;6.15;;;17.80;99.90;;;;;;5002004;28;20107;-63
2023/08/15 05:28:54;;;;;;;10.50;5.45;;;17.60;99.90;;;;;;5027613;28;20042;-63
2023/08/15 05:31:20;;;;;;;9.50;4.88;;;;;;;;;;5024982;28;20091;-63
2023/08/15 05:33:46;;;;;;;11.25;5.47;;;17.60;99.90;;;;;;5026302;28;20044;-63
2023/08/15 05:36:11;;;;;;;11.65;5.45;;;17.70;99.90;;;;;;5023045;28;20530;-63
2023/08/15 05:38:37;;;;;;;12.48;5.15;;;17.70;99.90;;;;;;5027008;28;20895;-63
2023/08/15 05:41:03;;;;;;;10.32;5.38;;;;;;;;;;4987361;28;20046;-64
2023/08/15 05:43:28;;;;;;;15.65;6.47;;;17.80;99.90;;;;;;5006650;28;20090;-63
2023/08/15 05:45:54;;;;;;;11.57;5.05;;;17.70;99.90;;;;;;5024624;28;20045;-62
2023/08/15 05:48:19;;;;;;;5.47;4.97;;;17.70;99.90;;;;;;5005992;28;20087;-64
2023/08/15 05:50:45;;;;;;;8.82;4.75;;;17.60;99.90;;;;;;5023122;28;20041;-64
2023/08/15 05:53:11;;;;;;;8.80;5.03;;;17.80;99.90;;;;;;5026370;28;20030;-63
2023/08/15 05:55:37;;;;;;;7.53;4.38;;;;;;;;;;5026303;28;20038;-64
2023/08/15 05:58:03;;;;;;;7.95;4.20;;;;;;;;;;5023349;28;20763;-64
2023/08/15 06:00:29;;;;;;;10.70;5.18;;;17.80;99.90;;;;;;5008888;28;20057;-63
2023/08/15 06:02:54;;;;;;;10.25;4.25;;;17.80;99.90;;;;;;5021883;28;20037;-63
2023/08/15 06:05:21;;;;;;;8.88;4.68;;;17.80;99.90;;;;;;5002946;28;20048;-64
2023/08/15 06:07:47;;;;;;;7.57;4.57;;;17.90;99.90;;;;;;5020986;28;20100;-64
2023/08/15 06:10:13;;;;;;;9.82;4.72;;;;;;;;;;5006430;28;20045;-64
2023/08/15 06:12:39;;;;;;;8.65;4.35;;;18.30;99.90;;;;;;5021780;28;20112;-63
2023/08/15 06:15:05;;;;;;;12.20;4.38;;;18.40;99.90;;;;;;5022278;28;20129;-64
2023/08/15 06:17:31;;;;;;;12.10;3.75;;;18.50;99.90;;;;;;5005072;28;20152;-64
2023/08/15 06:19:56;;;;;;;9.75;3.80;;;18.80;99.90;;;;;;5021673;28;20077;-64
2023/08/15 06:22:22;;;;;;;13.80;4.63;;;19.20;99.90;;;;;;5022495;28;20049;-64
2023/08/15 06:24:47;;;;;;;10.77;4.53;;;19.30;99.90;;;;;;5002131;28;20059;-64
2023/08/15 06:27:13;;;;;;;11.82;3.40;;;19.50;99.90;;;;;;5018395;28;20041;-64
2023/08/15 06:29:38;;;;;;;7.05;3.25;;;19.70;99.90;;;;;;5019644;28;20048;-64
2023/08/15 06:32:04;;;;;;;5.28;2.67;;;19.80;99.90;;;;;;5021445;28;20048;-64
2023/08/15 06:34:30;;;;;;;7.90;3.70;;;20.00;99.90;;;;;;5027003;28;20123;-64
2023/08/15 06:36:55;;;;;;;6.10;3.05;;;20.40;99.90;;;;;;5026154;28;20562;-64
2023/08/15 06:39:21;;;;;;;9.68;3.17;;;20.50;99.90;;;;;;5006553;28;20043;-63
2023/08/15 06:41:46;;;;;;;6.25;2.25;;;20.70;99.90;;;;;;5019378;28;20088;-63
2023/08/15 06:44:12;;;;;;;10.20;2.75;;;20.80;99.90;;;;;;5020274;28;20147;-65
2023/08/15 06:46:37;;;;;;;7.32;2.60;;;21.00;99.90;;;;;;5018105;28;20048;-68
2023/08/15 06:49:03;;;;;;;6.97;2.42;;;22.40;99.90;;;;;;5020932;28;20048;-67
2023/08/15 06:51:28;;;;;;;9.75;2.08;;;23.40;99.90;;;;;;5022239;28;20047;-67
2023/08/15 06:53:55;;;;;;;7.70;1.80;;;24.60;99.90;;;;;;5022410;28;20071;-66
2023/08/15 06:56:21;;;;;;;7.90;1.90;;;25.10;99.90;;;;;;5020612;28;20075;-69
2023/08/15 06:58:47;;;;;;;8.85;2.30;;;25.90;99.90;;;;;;5022825;28;20069;-65
2023/08/15 07:01:12;;;;;;;6.22;1.60;;;24.90;99.90;;;;;;5019690;28;20046;-64
2023/08/15 07:03:38;;;;;;;7.55;1.77;;;24.40;99.90;;;;;;5019629;28;20058;-65
2023/08/15 07:06:05;;;;;;;6.63;1.77;;;23.40;99.90;;;;;;5011753;28;20097;-65
2023/08/15 07:08:31;;;;;;;11.40;2.22;;;23.00;99.90;;;;;;5021876;28;20049;-65
2023/08/15 07:10:58;;;;;;;6.63;2.10;;;22.70;99.90;;;;;;5001424;28;20122;-64
2023/08/15 07:13:24;;;;;;;10.20;2.53;;;22.20;99.90;;;;;;5009247;28;20080;-64
2023/08/15 07:15:54;;;;;;;10.27;2.35;;;21.80;99.90;;;;;;4996288;28;20666;-65
2023/08/15 07:18:19;;;;;;;8.63;1.92;;;21.40;99.90;;;;;;5020950;28;20147;-67
2023/08/15 07:20:45;;;;;;;7.95;2.13;;;23.00;99.90;;;;;;5010753;28;20384;-65
2023/08/15 07:23:10;;;;;;;11.48;1.60;;;21.30;99.90;;;;;;5023282;28;20033;-66
2023/08/15 07:25:41;;;;;;;7.55;2.20;;;21.20;99.90;;;;;;5012324;28;20087;-65
2023/08/15 07:28:07;;;;;;;8.48;2.10;;;21.10;99.90;;;;;;5021197;28;20057;-65
2023/08/15 07:30:33;;;;;;;9.95;2.20;;;20.90;99.90;;;;;;5021919;28;20140;-64
2023/08/15 07:32:59;;;;;;;9.73;2.53;;;20.70;99.90;;;;;;4998499;28;21320;-65
2023/08/15 07:35:24;;;;;;;11.05;2.28;;;20.90;99.90;;;;;;5001367;28;20056;-65
2023/08/15 07:37:50;;;;;;;9.35;2.45;;;20.70;99.90;;;;;;5014507;28;20446;-65
2023/08/15 07:40:20;;;;;;;7.38;2.30;;;20.80;99.90;;;;;;5021601;28;20068;-66
2023/08/15 07:42:49;;;;;;;12.27;2.55;;;20.90;99.90;;;;;;4970242;28;20046;-67
2023/08/15 07:45:18;;;;;;;12.00;2.83;;;20.50;99.90;;;;;;5009251;28;20096;-67
2023/08/15 07:47:45;;;;;;;14.23;2.45;;;20.70;99.90;;;;;;5016619;28;20184;-65
2023/08/15 07:50:22;;;;;;;7.45;2.00;;;20.40;99.90;;;;;;5017592;28;20042;-65
2023/08/15 07:52:48;;;;;;;7.13;2.10;;;20.60;99.90;;;;;;5018876;28;20067;-64
2023/08/15 07:55:14;;;;;;;6.47;2.00;;;20.30;99.90;;;;;;5009917;28;20062;-65
2023/08/15 07:57:40;;;;;;;5.38;1.63;;;20.80;99.90;;;;;;5004260;28;20699;-66
2023/08/15 08:00:08;;;;;;;7.68;1.83;;;20.50;99.90;;;;;;5017074;28;20060;-68
2023/08/15 08:02:33;;;;;;;10.13;1.73;;;20.80;99.90;;;;;;5008894;28;20153;-67
2023/08/15 08:04:59;;;;;;;8.05;2.22;;;20.80;99.90;;;;;;5010081;28;20160;-68
2023/08/15 08:07:24;;;;;;;9.77;2.10;;;21.00;99.90;;;;;;5013580;28;20088;-67
2023/08/15 08:09:50;;;;;;;6.95;1.58;;;20.80;99.90;;;;;;5020095;28;20454;-68
2023/08/15 08:12:15;;;;;;;8.57;2.05;;;20.90;99.90;;;;;;5021774;28;20131;-67
2023/08/15 08:14:41;;;;;;;5.45;1.30;;;20.60;99.90;;;;;;5018413;28;20048;-68
2023/08/15 08:17:07;;;;;;;8.15;1.70;;;21.10;99.90;;;;;;5014786;28;20069;-67
2023/08/15 08:19:33;;;;;;;5.50;1.30;;;20.90;99.90;;;;;;5012525;28;20046;-68
2023/08/15 08:21:58;;;;;;;11.27;2.15;;;21.30;99.90;;;;;;5017487;28;20064;-67
2023/08/15 08:24:24;;;;;;;5.97;1.20;;;21.30;99.90;;;;;;5009869;28;20042;-70
2023/08/15 08:26:49;;;;;;;4.50;1.40;;;21.30;99.90;;;;;;5017194;28;20041;-69
2023/08/15 08:29:15;;;;;;;8.32;1.88;;;21.60;99.90;;;;;;5018155;28;20045;-68
2023/08/15 08:31:41;;;;;;;7.00;1.52;;;21.30;99.90;;;;;;5014670;28;20041;-68
2023/08/15 08:34:13;;;;;;;6.82;1.17;;;21.20;99.90;;;;;;5015172;28;20046;-68
2023/08/15 08:36:40;;;;;;;6.13;2.17;;;21.60;99.90;;;;;;5019784;28;20749;-66
2023/08/15 08:39:07;;;;;;;3.70;1.05;;;21.50;99.90;;;;;;5001916;28;20057;-70
2023/08/15 08:41:35;;;;;;;5.68;1.27;;;21.20;99.90;;;;;;5011606;28;20112;-70
2023/08/15 08:44:01;;;;;;;6.43;1.05;;;21.40;99.90;;;;;;5012587;28;20045;-69
2023/08/15 08:46:28;;;;;;;8.50;1.35;;;21.80;99.90;;;;;;5004388;28;20049;-67
2023/08/15 08:48:56;;;;;;;5.97;1.50;;;21.50;99.90;;;;;;5012384;28;20042;-68
2023/08/15 08:51:23;;;;;;;4.85;0.82;;;21.70;99.90;;;;;;5018640;28;20122;-69
2023/08/15 08:53:48;;;;;;;5.47;2.03;;;21.80;99.90;;;;;;5001092;28;20046;-68
2023/08/15 08:56:17;;;;;;;4.13;0.93;;;22.00;99.90;;;;;;4987446;28;20048;-68
2023/08/15 08:58:48;;;;;;;4.85;0.95;;;21.80;99.90;;;;;;5025428;28;20037;-68
2023/08/15 09:01:14;;;;;;;7.32;1.15;;;22.10;99.90;;;;;;5030777;28;20049;-68
2023/08/15 09:03:40;;;;;;;5.60;1.30;;;22.20;99.90;;;;;;5026259;28;20058;-68
2023/08/15 09:06:06;;;;;;;7.80;1.55;;;22.10;99.90;;;;;;5013817;28;20048;-68
2023/08/15 09:08:32;;;;;;;4.07;1.42;;;22.40;99.90;;;;;;5025195;28;20056;-69
2023/08/15 09:10:58;;;;;;;4.10;1.15;;;22.40;99.90;;;;;;5008917;28;20038;-68
2023/08/15 09:13:23;;;;;;;12.15;2.35;;;22.40;99.90;;;;;;5012406;28;20050;-68
2023/08/15 09:15:50;;;;;;;7.20;1.50;;;22.20;99.90;;;;;;5029950;28;20052;-69
2023/08/15 09:18:22;;;;;;;3.90;1.02;;;22.50;99.90;;;;;;5028666;28;20052;-69
2023/08/15 09:20:48;;;;;;;8.40;1.50;;;22.40;99.90;;;;;;5025220;28;20084;-68
2023/08/15 09:23:14;;;;;;;4.80;1.10;;;22.40;99.90;;;;;;5013992;28;20065;-70
2023/08/15 09:25:39;;;;;;;5.28;1.38;;;21.90;99.90;;;;;;5027261;28;20041;-68
2023/08/15 09:28:05;;;;;;;5.93;1.75;;;21.80;99.90;;;;;;5018239;28;20045;-68
2023/08/15 09:30:31;;;;;;;11.02;1.63;;;21.70;99.90;;;;;;5013465;28;20080;-68
2023/08/15 09:32:56;;;;;;;6.85;1.67;;;21.90;99.90;;;;;;5015280;28;20514;-70
2023/08/15 09:35:22;;;;;;;8.60;2.03;;;21.90;99.90;;;;;;5021711;28;20042;-69
2023/08/15 09:37:49;;;;;;;6.90;2.28;;;22.00;99.90;;;;;;5031519;28;20045;-69
2023/08/15 09:40:17;;;;;;;7.18;2.42;;;21.90;99.90;;;;;;5012750;28;20472;-68
2023/08/15 09:42:44;;;;;;;5.35;2.50;;;22.70;99.90;;;;;;5012684;28;20045;-68
2023/08/15 09:45:12;;;;;;;9.25;3.17;;;21.90;99.90;;;;;;5030196;28;20084;-69
2023/08/15 09:47:39;;;;;;;6.60;2.55;;;21.90;99.90;;;;;;5034437;28;20049;-68
2023/08/15 09:50:07;;;;;;;5.55;2.50;;;22.00;99.90;;;;;;5007636;28;20589;-69
2023/08/15 09:52:35;;;;;;;3.88;1.50;;;22.10;99.90;;;;;;5008657;28;20045;-69
2023/08/15 09:55:00;;;;;;;6.78;1.90;;;22.30;99.90;;;;;;5021605;28;20761;-68
2023/08/15 09:57:26;;;;;;;5.10;1.85;;;22.70;99.90;;;;;;5034910;28;20037;-68
2023/08/15 09:59:52;;;;;;;9.45;2.30;;;22.90;99.90;;;;;;5028270;28;20121;-68
2023/08/15 10:02:22;;;;;;;6.22;1.60;;;22.90;99.90;;;;;;5033986;28;20044;-70
2023/08/15 10:05:02;;;;;;;6.97;2.17;;;24.30;99.90;;;;;;5028447;28;20068;-69
2023/08/15 10:07:32;;;;;;;3.92;2.35;;;22.90;99.90;;;;;;5033737;28;20739;-70
2023/08/15 10:10:03;;;;;;;7.50;2.10;;;22.90;99.90;;;;;;5041734;28;20403;-70
2023/08/15 10:12:29;;;;;;;6.15;3.28;;;22.90;99.90;;;;;;5028984;28;20442;-69
2023/08/15 10:14:57;;;;;;;7.28;2.00;;;22.80;99.90;;;;;;4991504;28;20041;-68
2023/08/15 10:17:25;;;;;;;10.82;2.78;;;22.70;99.90;;;;;;5022878;28;20149;-69
2023/08/15 10:19:50;;;;;;;5.47;2.28;;;22.80;99.90;;;;;;5012171;28;20056;-69
2023/08/15 10:22:18;;;;;;;5.55;1.75;;;22.80;99.90;;;;;;5027699;28;20045;-68
2023/08/15 10:24:44;;;;;;;5.38;2.58;;;23.00;99.90;;;;;;5030261;28;20092;-69
2023/08/15 10:27:11;;;;;;;9.38;1.73;;;22.80;99.90;;;;;;5035301;28;20033;-69
2023/08/15 10:29:58;;;;;;;9.13;2.28;;;23.10;99.90;;;;;;5019281;28;20045;-69
2023/08/15 10:32:28;;;;;;;5.60;1.58;;;23.10;99.90;;;;;;5026785;28;20068;-70
2023/08/15 10:35:05;;;;;;;4.07;1.23;;;22.70;99.90;;;;;;5025262;28;20045;-69
2023/08/15 10:37:36;;;;;;;5.70;1.52;;;23.00;99.90;;;;;;5024436;28;20045;-71
2023/08/15 10:40:08;;;;;;;6.53;1.55;;;23.30;99.90;;;;;;5014587;28;20052;-68
2023/08/15 10:43:02;;;;;;;3.58;1.85;;;23.20;99.90;;;;;;5019279;28;20561;-69
2023/08/15 10:45:31;;;;;;;4.18;1.42;;;23.30;99.90;;;;;;5039979;28;20048;-68
2023/08/15 10:47:57;;;;;;;5.05;1.80;;;23.40;99.90;;;;;;5026667;28;20080;-68
2023/08/15 10:50:23;;;;;;;3.35;1.25;;;23.00;99.90;;;;;;5020483;28;20045;-69
2023/08/15 10:52:59;;;;;;;7.70;1.38;;;23.10;99.90;;;;;;5023891;28;20411;-71
2023/08/15 10:55:31;;;;;;;4.00;1.10;;;23.10;99.90;;;;;;5024372;28;20063;-70
2023/08/15 10:57:56;;;;;;;6.18;2.28;;;22.90;99.90;;;;;;5026991;28;20427;-68
2023/08/15 11:00:23;;;;;;;5.00;1.25;;;23.00;99.90;;;;;;5029582;28;20032;-69
2023/08/15 11:02:50;;;;;;;6.60;1.50;;;23.40;99.90;;;;;;5020959;28;20103;-70
2023/08/15 11:05:38;;;;;;;6.43;1.52;;;22.70;99.90;;;;;;5027075;28;20053;-69
2023/08/15 11:08:18;;;;;;;4.28;1.33;;;22.60;99.90;;;;;;5014724;28;20103;-68
2023/08/15 11:10:49;;;;;;;6.95;0.90;;;24.30;99.90;;;;;;5014100;28;20037;-70
2023/08/15 11:13:17;;;;;;;7.18;1.77;;;22.60;99.90;;;;;;5023192;28;20049;-69
2023/08/15 11:15:44;;;;;;;4.55;1.25;;;22.50;99.90;;;;;;5029377;28;20049;-68
2023/08/15 11:18:11;;;;;;;4.82;1.15;;;22.60;99.90;;;;;;5006148;28;20132;-68
2023/08/15 11:20:37;;;;;;;6.55;1.23;;;22.30;99.90;;;;;;5020878;28;20090;-68
2023/08/15 11:23:03;;;;;;;7.22;1.83;;;22.40;99.90;;;;;;5013390;28;20400;-69
2023/08/15 11:25:28;;;;;;;5.57;1.65;;;22.30;99.90;;;;;;5007054;28;20052;-69
2023/08/15 11:27:54;;;;;;;7.15;1.38;;;22.10;99.90;;;;;;5026657;28;20114;-69
2023/08/15 11:30:20;;;;;;;6.63;1.38;;;21.90;99.90;;;;;;5020098;28;20060;-72
2023/08/15 11:32:46;;;;;;;4.35;1.65;;;22.20;99.90;;;;;;5025158;28;20510;-68
2023/08/15 11:35:12;;;;;;;5.22;1.25;;;22.10;99.90;;;;;;5023317;28;20491;-68
2023/08/15 11:37:38;;;;;;;3.80;0.98;;;22.40;99.90;;;;;;5020615;28;20046;-68
2023/08/15 11:40:04;;;;;;;4.80;1.52;;;22.20;99.90;;;;;;5024032;28;20048;-69
2023/08/15 11:42:32;;;;;;;4.78;1.40;;;22.30;99.90;;;;;;5029020;28;20132;-69
2023/08/15 11:45:21;;;;;;;5.53;1.52;;;22.50;99.90;;;;;;5028424;28;20549;-68
2023/08/15 11:48:01;;;;;;;7.13;1.50;;;22.50;99.90;;;;;;5007383;28;20045;-70
2023/08/15 11:50:29;;;;;;;5.28;1.35;;;22.70;99.90;;;;;;5012391;28;20042;-68
2023/08/15 11:52:55;;;;;;;7.72;1.38;;;22.40;99.90;;;;;;5027502;28;20045;-69
2023/08/15 11:55:21;;;;;;;3.50;1.00;;;22.70;99.90;;;;;;5021909;28;20033;-69
2023/08/15 11:57:47;;;;;;;3.83;1.88;;;23.10;99.90;;;;;;5024888;28;20698;-68
2023/08/15 12:00:22;;;;;;;5.05;1.08;;;22.60;99.90;;;;;;4993135;28;20048;-68
2023/08/15 12:02:49;;;;;;;6.65;1.17;;;22.40;99.90;;;;;;5014183;28;20065;-68
2023/08/15 12:05:17;;;;;;;7.25;1.63;;;22.30;99.90;;;;;;5013959;28;20805;-69
2023/08/15 12:07:43;;;;;;;2.08;0.70;;;22.30;99.90;;;;;;5025517;28;20445;-68
2023/08/15 12:10:11;;;;;;;5.18;1.48;;;22.20;99.90;;;;;;5026399;28;20112;-68
2023/08/15 12:12:38;;;;;;;5.60;1.27;;;22.40;99.90;;;;;;5026565;28;20045;-68
2023/08/15 12:15:06;;;;;;;5.50;1.45;;;22.00;99.90;;;;;;5017031;28;20042;-68
2023/08/15 12:17:31;;;;;;;2.85;0.82;;;22.00;99.90;;;;;;5026362;28;20084;-68
2023/08/15 12:19:57;;;;;;;5.57;1.25;;;22.90;99.90;;;;;;5010185;28;20151;-69
2023/08/15 12:22:23;;;;;;;4.25;1.75;;;21.90;99.90;;;;;;5026051;28;20041;-68
2023/08/15 12:24:48;;;;;;;6.20;2.05;;;21.90;99.90;;;;;;5026085;28;20054;-69
2023/08/15 12:27:14;;;;;;;5.68;2.63;;;21.90;99.90;;;;;;5010296;28;20044;-68
2023/08/15 12:29:40;;;;;;;4.53;2.38;;;21.80;99.90;;;;;;5015665;28;20435;-69
2023/08/15 12:32:05;;;;;;;7.35;2.67;;;21.80;99.90;;;;;;5017183;28;20048;-68
2023/08/15 12:34:31;;;;;;;15.95;3.95;;;21.90;99.90;;;;;;5011794;28;20052;-70
2023/08/15 12:36:56;;;;;;;7.25;2.25;;;22.00;99.90;;;;;;5025684;28;20152;-69
2023/08/15 12:39:22;;;;;;;7.60;2.83;;;22.10;99.90;;;;;;5025600;28;20115;-68
2023/08/15 12:41:48;;;;;;;11.23;3.40;;;22.60;99.90;;;;;;5010554;28;20037;-69
2023/08/15 12:44:15;;;;;;;7.32;3.20;;;22.60;99.90;;;;;;5025400;28;20061;-70
2023/08/15 12:46:41;;;;;;;6.35;2.58;;;22.70;99.90;;;;;;5025635;28;20539;-71
2023/08/15 12:49:06;;;;;;;7.82;2.60;;;22.80;99.90;;;;;;5025291;28;20069;-69
2023/08/15 12:51:32;;;;;;;9.00;3.25;;;22.80;99.90;;;;;;5017105;28;20041;-69
2023/08/15 12:53:57;;;;;;;5.07;2.40;;;22.40;99.90;;;;;;5025664;28;20065;-70